createdAt,value
2022-09-03T00:00:01.035Z,97877.63
2022-09-03T00:02:43.916Z,97879.94
2022-09-03T00:05:23.443Z,97868.00
2022-09-03T00:08:04.092Z,97873.03
2022-09-03T00:10:45.117Z,97865.69
2022-09-03T00:13:27.660Z,97874.31
2022-09-03T00:15:59.187Z,97871.75
2022-09-03T00:18:35.143Z,97870.72
2022-09-03T00:21:10.198Z,97874.28
2022-09-03T00:23:44.656Z,97864.91
2022-09-03T00:26:31.265Z,97867.91
2022-09-03T00:29:11.051Z,97866.66
2022-09-03T00:31:45.364Z,97871.75
2022-09-03T00:34:27.160Z,97876.53
2022-09-03T00:36:57.657Z,97862.84
2022-09-03T00:39:30.891Z,97860.56
2022-09-03T00:42:23.767Z,97861.56
2022-09-03T00:45:21.642Z,97861.06
2022-09-03T00:48:09.574Z,97857.78
2022-09-03T00:50:52.494Z,97855.75
2022-09-03T00:53:33.918Z,97856.25
2022-09-03T00:56:16.270Z,97852.41
2022-09-03T00:59:03.477Z,97850.66
2022-09-03T01:01:44.006Z,97848.91
2022-09-03T01:04:33.271Z,97846.59
2022-09-03T01:07:14.431Z,97847.38
2022-09-03T01:09:56.589Z,97850.16
2022-09-03T01:12:39.979Z,97851.91
2022-09-03T01:15:20.507Z,97855.72
2022-09-03T01:18:09.026Z,97853.16
2022-09-03T01:20:57.144Z,97855.44
2022-09-03T01:23:56.457Z,97860.25
2022-09-03T01:26:59.243Z,97864.09
2022-09-03T01:29:39.722Z,97871.69
2022-09-03T01:32:16.959Z,97867.38
2022-09-03T01:34:59.148Z,97868.63
2022-09-03T01:37:44.218Z,97872.19
2022-09-03T01:40:27.370Z,97870.63
2022-09-03T01:43:16.099Z,97868.13
2022-09-03T01:46:00.322Z,97863.78
2022-09-03T01:48:46.437Z,97864.78
2022-09-03T01:51:26.506Z,97867.56
2022-09-03T01:54:20.992Z,97859.72
2022-09-03T01:57:35.600Z,97862.25
2022-09-03T02:00:13.673Z,97862.25
2022-09-03T02:02:51.598Z,97865.81
2022-09-03T02:05:24.971Z,97867.59
2022-09-03T02:08:01.356Z,97864.53
2022-09-03T02:10:35.897Z,97874.94
2022-09-03T02:13:11.335Z,97872.63
2022-09-03T02:15:45.901Z,97875.41
2022-09-03T02:18:23.596Z,97873.66
2022-09-03T02:20:57.689Z,97870.34
2022-09-03T02:23:32.834Z,97864.00
2022-09-03T02:26:10.899Z,97867.34
2022-09-03T02:28:50.979Z,97871.38
2022-09-03T02:31:30.206Z,97872.13
2022-09-03T02:34:11.401Z,97867.81
2022-09-03T02:36:49.681Z,97866.28
2022-09-03T02:39:25.078Z,97869.06
2022-09-03T02:42:03.369Z,97866.28
2022-09-03T02:44:37.652Z,97869.38
2022-09-03T02:47:10.174Z,97868.59
2022-09-03T02:49:43.021Z,97870.38
2022-09-03T02:52:14.028Z,97858.66
2022-09-03T02:54:45.743Z,97861.16
2022-09-03T02:57:27.253Z,97861.16
2022-09-03T02:59:58.047Z,97864.09
2022-09-03T03:02:28.295Z,97859.28
2022-09-03T03:05:01.790Z,97854.41
2022-09-03T03:07:35.589Z,97857.75
2022-09-03T03:10:05.794Z,97857.97
2022-09-03T03:12:36.086Z,97857.97
2022-09-03T03:15:06.761Z,97861.00
2022-09-03T03:17:36.966Z,97858.72
2022-09-03T03:20:12.093Z,97861.50
2022-09-03T03:22:42.225Z,97862.06
2022-09-03T03:25:13.078Z,97861.47
2022-09-03T03:27:43.465Z,97866.53
2022-09-03T03:30:15.666Z,97855.59
2022-09-03T03:32:45.867Z,97850.78
2022-09-03T03:35:18.851Z,97853.59
2022-09-03T03:37:49.127Z,97859.19
2022-09-03T03:40:20.320Z,97856.66
2022-09-03T03:42:50.980Z,97854.69
2022-09-03T03:45:21.182Z,97849.34
2022-09-03T03:47:51.377Z,97850.31
2022-09-03T03:50:24.286Z,97849.06
2022-09-03T03:52:54.424Z,97849.28
2022-09-03T03:55:24.575Z,97844.22
2022-09-03T03:57:57.327Z,97843.72
2022-09-03T04:00:27.476Z,97849.47
2022-09-03T04:02:57.756Z,97840.81
2022-09-03T04:05:33.593Z,97840.00
2022-09-03T04:08:05.510Z,97839.97
2022-09-03T04:10:35.824Z,97839.72
2022-09-03T04:13:06.034Z,97841.75
2022-09-03T04:15:37.181Z,97835.88
2022-09-03T04:18:07.505Z,97831.28
2022-09-03T04:20:40.497Z,97843.94
2022-09-03T04:23:10.922Z,97840.63
2022-09-03T04:25:41.967Z,97838.59
2022-09-03T04:28:12.772Z,97835.53
2022-09-03T04:30:42.961Z,97834.56
2022-09-03T04:33:17.719Z,97836.06
2022-09-03T04:35:50.502Z,97840.09
2022-09-03T04:38:20.617Z,97843.66
2022-09-03T04:40:55.636Z,97842.47
2022-09-03T04:43:26.118Z,97841.72
2022-09-03T04:46:01.241Z,97843.03
2022-09-03T04:48:33.247Z,97838.03
2022-09-03T04:51:13.494Z,97829.47
2022-09-03T04:53:46.556Z,97831.53
2022-09-03T04:56:18.334Z,97827.22
2022-09-03T04:58:51.069Z,97834.56
2022-09-03T05:01:24.511Z,97840.13
2022-09-03T05:03:54.972Z,97838.84
2022-09-03T05:06:28.136Z,97836.63
2022-09-03T05:08:59.776Z,97845.22
2022-09-03T05:11:31.456Z,97847.50
2022-09-03T05:14:03.672Z,97848.81
2022-09-03T05:16:33.868Z,97852.91
2022-09-03T05:19:07.458Z,97853.66
2022-09-03T05:21:40.466Z,97855.44
2022-09-03T05:24:11.551Z,97862.56
2022-09-03T05:26:42.880Z,97855.75
2022-09-03T05:29:14.436Z,97851.53
2022-09-03T05:31:44.720Z,97852.81
2022-09-03T05:34:16.634Z,97848.53
2022-09-03T05:36:53.220Z,97857.44
2022-09-03T05:39:23.486Z,97865.09
2022-09-03T05:41:53.801Z,97858.75
2022-09-03T05:44:24.326Z,97853.94
2022-09-03T05:46:54.908Z,97857.53
2022-09-03T05:49:25.497Z,97859.84
2022-09-03T05:51:58.220Z,97863.41
2022-09-03T05:54:28.375Z,97858.38
2022-09-03T05:56:58.586Z,97852.78
2022-09-03T05:59:28.749Z,97855.81
2022-09-03T06:02:00.314Z,97863.91
2022-09-03T06:04:30.778Z,97860.28
2022-09-03T06:07:03.653Z,97867.13
2022-09-03T06:09:33.917Z,97863.50
2022-09-03T06:12:04.589Z,97861.13
2022-09-03T06:14:35.014Z,97863.59
2022-09-03T06:17:05.232Z,97865.38
2022-09-03T06:19:35.436Z,97870.59
2022-09-03T06:22:08.299Z,97872.13
2022-09-03T06:24:38.726Z,97860.53
2022-09-03T06:27:08.985Z,97854.75
2022-09-03T06:29:40.030Z,97859.41
2022-09-03T06:32:10.458Z,97859.06
2022-09-03T06:34:40.794Z,97852.81
2022-09-03T06:37:16.513Z,97851.19
2022-09-03T06:39:46.820Z,97851.75
2022-09-03T06:42:17.611Z,97858.25
2022-09-03T06:44:49.050Z,97861.88
2022-09-03T06:47:19.200Z,97864.44
2022-09-03T06:49:49.385Z,97863.63
2022-09-03T06:52:22.425Z,97862.44
2022-09-03T06:54:52.554Z,97861.09
2022-09-03T06:57:22.925Z,97863.28
2022-09-03T06:59:54.798Z,97853.00
2022-09-03T07:02:25.146Z,97858.44
2022-09-03T07:04:55.352Z,97857.09
2022-09-03T07:07:28.151Z,97849.09
2022-09-03T07:09:58.313Z,97857.22
2022-09-03T07:12:28.603Z,97859.19
2022-09-03T07:14:58.746Z,97857.97
2022-09-03T07:17:30.471Z,97851.44
2022-09-03T07:20:00.715Z,97848.16
2022-09-03T07:22:33.517Z,97844.44
2022-09-03T07:25:03.662Z,97848.16
2022-09-03T07:27:33.778Z,97854.44
2022-09-03T07:30:04.115Z,97852.66
2022-09-03T07:32:34.308Z,97856.63
2022-09-03T07:35:05.126Z,97858.34
2022-09-03T07:37:38.569Z,97859.44
2022-09-03T07:40:10.684Z,97852.44
2022-09-03T07:42:41.554Z,97844.63
2022-09-03T07:45:13.533Z,97845.56
2022-09-03T07:47:51.646Z,97838.31
2022-09-03T07:50:21.751Z,97832.81
2022-09-03T07:53:00.392Z,97841.19
2022-09-03T07:55:30.558Z,97835.38
2022-09-03T07:58:00.722Z,97833.38
2022-09-03T08:00:34.066Z,97836.91
2022-09-03T08:03:08.495Z,97827.28
2022-09-03T08:05:40.149Z,97844.72
2022-09-03T08:08:15.560Z,97841.63
2022-09-03T08:10:47.768Z,97837.16
2022-09-03T08:13:17.948Z,97832.75
2022-09-03T08:15:59.670Z,97832.66
2022-09-03T08:18:35.535Z,97839.97
2022-09-03T08:21:06.482Z,97833.97
2022-09-03T08:23:40.854Z,97835.97
2022-09-03T08:26:12.327Z,97839.97
2022-09-03T08:28:43.198Z,97844.72
2022-09-03T08:31:16.946Z,97832.94
2022-09-03T08:33:50.777Z,97841.22
2022-09-03T08:36:22.982Z,97823.59
2022-09-03T08:38:57.735Z,97832.41
2022-09-03T08:41:44.581Z,97837.59
2022-09-03T08:44:28.070Z,97829.66
2022-09-03T08:47:05.223Z,97831.69
2022-09-03T08:49:43.246Z,97822.88
2022-09-03T08:52:29.024Z,97817.75
2022-09-03T08:55:16.359Z,97812.81
2022-09-03T08:57:52.257Z,97807.31
2022-09-03T09:00:23.010Z,97809.78
2022-09-03T09:03:11.013Z,97811.78
2022-09-03T09:05:54.999Z,97810.56
2022-09-03T09:08:35.854Z,97810.00
2022-09-03T09:11:22.437Z,97797.78
2022-09-03T09:14:01.242Z,97789.44
2022-09-03T09:16:42.556Z,97796.22
2022-09-03T09:19:34.742Z,97802.72
2022-09-03T09:22:08.333Z,97792.75
2022-09-03T09:24:44.659Z,97786.63
2022-09-03T09:27:19.627Z,97799.38
2022-09-03T09:29:53.287Z,97798.78
2022-09-03T09:32:23.845Z,97788.56
2022-09-03T09:34:54.618Z,97790.66
2022-09-03T09:37:24.880Z,97787.59
2022-09-03T09:40:00.736Z,97793.03
2022-09-03T09:42:33.774Z,97791.66
2022-09-03T09:45:13.929Z,97784.16
2022-09-03T09:47:44.958Z,97786.13
2022-09-03T09:50:25.051Z,97783.47
2022-09-03T09:53:08.753Z,97777.41
2022-09-03T09:55:39.235Z,97771.81
2022-09-03T09:58:14.627Z,97773.09
2022-09-03T10:00:45.031Z,97770.06
2022-09-03T10:03:17.187Z,97769.34
2022-09-03T10:06:01.262Z,97770.66
2022-09-03T10:08:31.441Z,97761.91
2022-09-03T10:11:01.598Z,97763.81
2022-09-03T10:13:43.052Z,97754.25
2022-09-03T10:16:27.619Z,97762.44
2022-09-03T10:19:09.820Z,97762.31
2022-09-03T10:21:48.720Z,97755.03
2022-09-03T10:24:39.707Z,97768.41
2022-09-03T10:27:14.937Z,97757.44
2022-09-03T10:29:50.364Z,97761.81
2022-09-03T10:32:47.683Z,97762.88
2022-09-03T10:35:31.049Z,97755.84
2022-09-03T10:38:13.669Z,97755.94
2022-09-03T10:40:53.066Z,97760.19
2022-09-03T10:43:52.135Z,97745.81
2022-09-03T10:46:30.810Z,97746.53
2022-09-03T10:49:24.088Z,97743.81
2022-09-03T10:52:06.206Z,97743.69
2022-09-03T10:54:52.182Z,97747.59
2022-09-03T10:57:38.401Z,97747.25
2022-09-03T11:00:13.086Z,97750.84
2022-09-03T11:03:34.682Z,97736.53
2022-09-03T11:06:11.767Z,97746.47
2022-09-03T11:08:47.971Z,97732.22
2022-09-03T11:11:26.707Z,97739.81
2022-09-03T11:14:02.822Z,97742.22
2022-09-03T11:16:37.040Z,97724.84
2022-09-03T11:19:15.778Z,97721.03
2022-09-03T11:21:46.762Z,97724.31
2022-09-03T11:24:23.268Z,97715.16
2022-09-03T11:27:02.221Z,97715.25
2022-09-03T11:29:39.234Z,97706.66
2022-09-03T11:32:13.957Z,97705.53
2022-09-03T11:34:55.605Z,97704.00
2022-09-03T11:37:28.308Z,97697.97
2022-09-03T11:40:02.830Z,97692.97
2022-09-03T11:42:37.864Z,97690.97
2022-09-03T11:45:26.634Z,97700.13
2022-09-03T11:47:57.123Z,97694.06
2022-09-03T11:50:32.398Z,97697.31
2022-09-03T11:53:13.107Z,97701.22
2022-09-03T11:55:57.359Z,97695.75
2022-09-03T11:58:30.066Z,97687.28
2022-09-03T12:01:02.217Z,97696.06
2022-09-03T12:03:45.698Z,97691.63
2022-09-03T12:06:45.366Z,97690.59
2022-09-03T12:09:58.044Z,97675.88
2022-09-03T12:12:49.083Z,97679.13
2022-09-03T12:15:56.450Z,97676.41
2022-09-03T12:18:29.976Z,97687.41
2022-09-03T12:21:09.294Z,97675.16
2022-09-03T12:23:47.645Z,97674.84
2022-09-03T12:26:21.111Z,97671.06
2022-09-03T12:28:56.125Z,97670.66
2022-09-03T12:31:30.107Z,97667.81
2022-09-03T12:34:04.613Z,97661.16
2022-09-03T12:36:42.455Z,97664.00
2022-09-03T12:39:18.868Z,97665.25
2022-09-03T12:42:03.929Z,97662.16
2022-09-03T12:44:36.404Z,97653.72
2022-09-03T12:50:07.765Z,97650.38
2022-09-03T12:52:42.800Z,97651.97
2022-09-03T12:55:31.239Z,97647.44
2022-09-03T12:58:09.306Z,97640.06
2022-09-03T13:00:49.442Z,97632.03
2022-09-03T13:03:24.779Z,97636.22
2022-09-03T13:05:58.636Z,97638.19
2022-09-03T13:08:33.676Z,97625.91
2022-09-03T13:11:08.687Z,97623.72
2022-09-03T13:13:40.881Z,97624.25
2022-09-03T13:16:48.415Z,97621.34
2022-09-03T13:19:26.514Z,97624.97
2022-09-03T13:22:09.965Z,97626.06
2022-09-03T13:25:04.390Z,97625.97
2022-09-03T13:27:48.443Z,97621.88
2022-09-03T13:30:23.285Z,97619.16
2022-09-03T13:33:02.052Z,97616.75
2022-09-03T13:35:38.038Z,97613.41
2022-09-03T13:38:27.472Z,97613.22
2022-09-03T13:41:03.377Z,97623.50
2022-09-03T13:43:45.000Z,97621.41
2022-09-03T13:46:20.834Z,97614.34
2022-09-03T13:49:06.336Z,97619.81
2022-09-03T13:51:47.226Z,97619.22
2022-09-03T13:54:47.749Z,97613.16
2022-09-03T13:57:33.862Z,97612.38
2022-09-03T14:00:12.823Z,97614.31
2022-09-03T14:02:54.412Z,97606.56
2022-09-03T14:05:50.206Z,97609.75
2022-09-03T14:08:31.807Z,97613.25
2022-09-03T14:11:16.454Z,97607.00
2022-09-03T14:14:03.560Z,97604.28
2022-09-03T14:16:44.471Z,97599.25
2022-09-03T14:19:21.978Z,97606.53
2022-09-03T14:21:59.735Z,97610.94
2022-09-03T14:24:37.330Z,97604.03
2022-09-03T14:27:08.180Z,97601.78
2022-09-03T14:29:39.782Z,97605.22
2022-09-03T14:32:48.747Z,97597.81
2022-09-03T14:35:35.355Z,97596.09
2022-09-03T14:38:36.052Z,97594.72
2022-09-03T14:41:34.409Z,97588.38
2022-09-03T14:44:29.669Z,97600.63
2022-09-03T14:47:15.603Z,97601.56
2022-09-03T14:50:15.326Z,97599.72
2022-09-03T14:53:18.275Z,97596.44
2022-09-03T14:56:20.618Z,97603.31
2022-09-03T14:59:18.594Z,97599.81
2022-09-03T15:01:57.099Z,97594.50
2022-09-03T15:04:50.174Z,97601.31
2022-09-03T15:07:36.018Z,97594.34
2022-09-03T15:10:19.345Z,97586.22
2022-09-03T15:12:55.494Z,97589.00
2022-09-03T15:15:35.290Z,97592.78
2022-09-03T15:18:18.057Z,97596.78
2022-09-03T15:20:56.847Z,97603.25
2022-09-03T15:23:52.180Z,97596.03
2022-09-03T15:26:46.694Z,97605.13
2022-09-03T15:29:52.379Z,97597.41
2022-09-03T15:32:40.528Z,97601.06
2022-09-03T15:35:14.021Z,97610.50
2022-09-03T15:37:50.954Z,97609.44
2022-09-03T15:40:34.643Z,97601.50
2022-09-03T15:43:12.737Z,97602.91
2022-09-03T15:45:57.762Z,97604.72
2022-09-03T15:48:39.444Z,97604.22
2022-09-03T15:51:20.307Z,97617.38
2022-09-03T15:53:57.841Z,97617.00
2022-09-03T15:56:38.716Z,97625.84
2022-09-03T15:59:19.395Z,97625.31
2022-09-03T16:01:58.198Z,97619.63
2022-09-03T16:04:53.663Z,97613.09
2022-09-03T16:07:29.715Z,97615.00
2022-09-03T16:10:28.220Z,97614.97
2022-09-03T16:13:09.696Z,97612.66
2022-09-03T16:15:46.415Z,97608.69
2022-09-03T16:18:30.318Z,97617.38
2022-09-03T16:21:06.716Z,97616.34
2022-09-03T16:23:45.858Z,97616.56
2022-09-03T16:26:25.584Z,97618.97
2022-09-03T16:29:03.731Z,97612.78
2022-09-03T16:31:54.164Z,97623.53
2022-09-03T16:34:32.317Z,97624.06
2022-09-03T16:37:28.926Z,97628.56
2022-09-03T16:40:15.848Z,97623.59
2022-09-03T16:42:58.311Z,97625.75
2022-09-03T16:45:38.808Z,97628.81
2022-09-03T16:48:18.314Z,97637.41
2022-09-03T16:51:16.123Z,97630.09
2022-09-03T16:54:12.780Z,97644.09
2022-09-03T16:57:12.309Z,97635.25
2022-09-03T17:00:08.115Z,97634.69
2022-09-03T17:03:26.060Z,97636.75
2022-09-03T17:06:34.592Z,97635.09
2022-09-03T17:09:22.128Z,97639.25
2022-09-03T17:12:12.021Z,97632.84
2022-09-03T17:15:01.383Z,97645.25
2022-09-03T17:18:10.536Z,97645.63
2022-09-03T17:20:52.985Z,97650.69
2022-09-03T17:24:20.116Z,97653.16
2022-09-03T17:27:03.945Z,97650.50
2022-09-03T17:29:54.850Z,97654.09
2022-09-03T17:32:41.980Z,97650.13
2022-09-03T17:35:20.774Z,97648.97
2022-09-03T17:38:08.093Z,97654.63
2022-09-03T17:40:50.088Z,97660.81
2022-09-03T17:43:30.814Z,97659.50
2022-09-03T17:46:17.294Z,97663.66
2022-09-03T17:48:54.436Z,97665.91
2022-09-03T17:51:46.396Z,97661.75
2022-09-03T17:54:27.539Z,97667.78
2022-09-03T17:57:09.432Z,97663.25
2022-09-03T17:59:49.969Z,97673.78
2022-09-03T18:02:35.081Z,97686.28
2022-09-03T18:05:21.478Z,97683.19
2022-09-03T18:08:03.759Z,97690.13
2022-09-03T18:10:48.043Z,97683.69
2022-09-03T18:13:30.792Z,97680.47
2022-09-03T18:16:09.731Z,97687.97
2022-09-03T18:18:47.854Z,97684.75
2022-09-03T18:21:37.558Z,97699.03
2022-09-03T18:24:39.166Z,97701.78
2022-09-03T18:27:29.439Z,97699.22
2022-09-03T18:30:20.832Z,97711.22
2022-09-03T18:33:03.569Z,97707.44
2022-09-03T18:35:50.066Z,97708.53
2022-09-03T18:38:41.240Z,97716.06
2022-09-03T18:41:48.250Z,97713.91
2022-09-03T18:44:45.190Z,97714.81
2022-09-03T18:48:08.402Z,97720.47
2022-09-03T18:51:02.188Z,97724.19
2022-09-03T18:54:00.719Z,97714.00
2022-09-03T18:56:55.959Z,97718.09
2022-09-03T18:59:57.434Z,97723.13
2022-09-03T19:02:52.102Z,97730.78
2022-09-03T19:05:43.520Z,97733.50
2022-09-03T19:08:33.576Z,97723.66
2022-09-03T19:11:24.453Z,97728.56
2022-09-03T19:14:13.271Z,97733.56
2022-09-03T19:17:09.345Z,97729.97
2022-09-03T19:20:12.133Z,97737.00
2022-09-03T19:22:57.151Z,97738.53
2022-09-03T19:25:42.169Z,97737.22
2022-09-03T19:28:33.054Z,97742.31
2022-09-03T19:31:46.822Z,97741.34
2022-09-03T19:34:52.143Z,97738.53
2022-09-03T19:37:39.064Z,97740.38
2022-09-03T19:40:44.999Z,97737.66
2022-09-03T19:43:39.771Z,97733.56
2022-09-03T19:46:38.333Z,97738.44
2022-09-03T19:49:35.174Z,97741.06
2022-09-03T19:52:25.718Z,97737.66
2022-09-03T19:55:11.143Z,97730.75
2022-09-03T19:57:57.389Z,97734.66
2022-09-03T20:00:40.034Z,97732.34
2022-09-03T20:03:29.230Z,97733.66
2022-09-03T20:06:11.856Z,97728.56
2022-09-03T20:08:54.592Z,97742.09
2022-09-03T20:11:27.782Z,97740.06
2022-09-03T20:14:12.770Z,97741.06
2022-09-03T20:17:09.321Z,97742.56
2022-09-03T20:19:58.686Z,97755.66
2022-09-03T20:22:34.490Z,97754.50
2022-09-03T20:25:31.038Z,97758.94
2022-09-03T20:28:14.709Z,97762.63
2022-09-03T20:30:53.434Z,97769.00
2022-09-03T20:33:47.262Z,97769.59
2022-09-03T20:36:32.370Z,97770.53
2022-09-03T20:39:28.042Z,97767.72
2022-09-03T20:42:14.741Z,97766.75
2022-09-03T20:44:58.472Z,97768.59
2022-09-03T20:48:00.458Z,97771.63
2022-09-03T20:50:44.152Z,97772.50
2022-09-03T20:53:52.831Z,97775.88
2022-09-03T20:56:31.693Z,97773.06
2022-09-03T20:59:11.905Z,97762.56
2022-09-03T21:01:55.734Z,97772.50
2022-09-03T21:04:45.090Z,97767.19
2022-09-03T21:07:25.012Z,97764.63
2022-09-03T21:10:06.980Z,97765.28
2022-09-03T21:12:47.299Z,97765.81
2022-09-03T21:15:26.337Z,97765.81
2022-09-03T21:18:08.222Z,97767.16
2022-09-03T21:20:48.929Z,97770.81
2022-09-03T21:23:25.881Z,97771.38
2022-09-03T21:26:05.687Z,97768.22
2022-09-03T21:28:42.077Z,97766.69
2022-09-03T21:31:22.909Z,97779.25
2022-09-03T21:34:10.638Z,97774.94
2022-09-03T21:36:45.940Z,97774.19
2022-09-03T21:39:23.069Z,97775.25
2022-09-03T21:42:03.517Z,97777.53
2022-09-03T21:44:55.892Z,97776.66
2022-09-03T21:47:30.570Z,97783.38
2022-09-03T21:50:16.329Z,97780.56
2022-09-03T21:52:55.353Z,97779.69
2022-09-03T21:55:37.350Z,97786.41
2022-09-03T21:58:25.796Z,97780.13
2022-09-03T22:01:04.539Z,97782.50
2022-09-03T22:03:34.895Z,97792.78
2022-09-03T22:06:11.197Z,97790.97
2022-09-03T22:08:50.056Z,97794.75
2022-09-03T22:11:29.616Z,97795.81
2022-09-03T22:14:09.395Z,97796.38
2022-09-03T22:16:48.252Z,97800.50
2022-09-03T22:19:18.903Z,97796.16
2022-09-03T22:21:59.767Z,97792.59
2022-09-03T22:24:42.611Z,97792.34
2022-09-03T22:27:22.762Z,97799.59
2022-09-03T22:30:07.267Z,97796.22
2022-09-03T22:32:56.282Z,97792.88
2022-09-03T22:35:52.889Z,97782.69
2022-09-03T22:39:02.338Z,97790.38
2022-09-03T22:42:10.044Z,97790.19
2022-09-03T22:45:18.322Z,97795.06
2022-09-03T22:48:04.315Z,97793.09
2022-09-03T22:50:42.904Z,97799.56
2022-09-03T22:53:25.182Z,97804.00
2022-09-03T22:56:03.847Z,97792.84
2022-09-03T22:58:39.409Z,97800.84
2022-09-03T23:01:20.573Z,97807.53
2022-09-03T23:03:56.851Z,97804.28
2022-09-03T23:06:35.211Z,97795.84
2022-09-03T23:09:09.406Z,97801.34
2022-09-03T23:11:45.217Z,97812.38
2022-09-03T23:14:20.153Z,97816.50
2022-09-03T23:16:58.040Z,97817.78
2022-09-03T23:19:38.959Z,97818.31
2022-09-03T23:22:13.491Z,97813.53
2022-09-03T23:24:48.145Z,97813.31
2022-09-03T23:27:23.594Z,97810.50
2022-09-03T23:29:58.044Z,97808.78
2022-09-03T23:32:33.720Z,97810.91
2022-09-03T23:35:06.905Z,97817.59
2022-09-03T23:37:56.639Z,97818.16
2022-09-03T23:40:53.137Z,97819.00
2022-09-03T23:43:59.580Z,97822.63
2022-09-03T23:46:39.638Z,97824.00
2022-09-03T23:49:29.952Z,97818.97
2022-09-03T23:52:28.712Z,97814.97
2022-09-03T23:55:12.145Z,97819.44
2022-09-03T23:57:57.118Z,97822.78
